sensor_id;sensor_type;location;lat;lon;timestamp;pressure;altitude;pressure_sealevel;temperature;humidity
51439;BME280;38816;51.142;-0.974;2023-10-19T00:00:48;97195.69;;;12.36;100.00
51439;BME280;38816;51.142;-0.974;2023-10-19T00:03:16;97194.84;;;12.36;100.00
51439;BME280;38816;51.142;-0.974;2023-10-19T00:05:42;97193.00;;;12.39;100.00
51439;BME280;38816;51.142;-0.974;2023-10-19T00:08:07;97204.91;;;12.42;100.00
51439;BME280;38816;51.142;-0.974;2023-10-19T00:10:48;97190.22;;;12.44;100.00
51439;BME280;38816;51.142;-0.974;2023-10-19T00:13:19;97196.22;;;12.45;100.00
51439;BME280;38816;51.142;-0.974;2023-10-19T00:15:44;97179.78;;;12.47;100.00
51439;BME280;38816;51.142;-0.974;2023-10-19T00:18:15;97187.31;;;12.52;100.00
51439;BME280;38816;51.142;-0.974;2023-10-19T00:20:41;97188.88;;;12.56;100.00
51439;BME280;38816;51.142;-0.974;2023-10-19T00:23:06;97196.38;;;12.62;100.00
51439;BME280;38816;51.142;-0.974;2023-10-19T00:25:33;97184.22;;;12.65;100.00
51439;BME280;38816;51.142;-0.974;2023-10-19T00:28:00;97190.06;;;12.69;100.00
51439;BME280;38816;51.142;-0.974;2023-10-19T00:30:29;97189.03;;;12.73;100.00
51439;BME280;38816;51.142;-0.974;2023-10-19T00:32:58;97188.91;;;12.76;100.00
51439;BME280;38816;51.142;-0.974;2023-10-19T00:35:33;97185.34;;;12.79;100.00
51439;BME280;38816;51.142;-0.974;2023-10-19T00:38:07;97179.25;;;12.81;100.00
51439;BME280;38816;51.142;-0.974;2023-10-19T00:40:52;97182.47;;;12.86;100.00
51439;BME280;38816;51.142;-0.974;2023-10-19T00:43:38;97177.31;;;12.86;100.00
51439;BME280;38816;51.142;-0.974;2023-10-19T00:46:12;97177.97;;;12.91;100.00
51439;BME280;38816;51.142;-0.974;2023-10-19T00:48:57;97180.28;;;12.98;100.00
51439;BME280;38816;51.142;-0.974;2023-10-19T00:51:33;97181.69;;;13.05;100.00
51439;BME280;38816;51.142;-0.974;2023-10-19T00:54:18;97175.47;;;13.10;100.00
51439;BME280;38816;51.142;-0.974;2023-10-19T00:56:53;97182.09;;;13.16;100.00
51439;BME280;38816;51.142;-0.974;2023-10-19T00:59:21;97170.66;;;13.22;100.00
51439;BME280;38816;51.142;-0.974;2023-10-19T01:01:52;97169.56;;;13.27;100.00
51439;BME280;38816;51.142;-0.974;2023-10-19T01:04:28;97171.13;;;13.31;100.00
51439;BME280;38816;51.142;-0.974;2023-10-19T01:07:00;97173.47;;;13.37;100.00
51439;BME280;38816;51.142;-0.974;2023-10-19T01:09:46;97175.03;;;13.40;100.00
51439;BME280;38816;51.142;-0.974;2023-10-19T01:12:12;97178.34;;;13.43;100.00
51439;BME280;38816;51.142;-0.974;2023-10-19T01:17:58;97181.25;;;13.55;100.00
51439;BME280;38816;51.142;-0.974;2023-10-19T01:20:24;97174.19;;;13.60;100.00
51439;BME280;38816;51.142;-0.974;2023-10-19T01:22:57;97175.69;;;13.64;100.00
51439;BME280;38816;51.142;-0.974;2023-10-19T01:28:07;97171.94;;;13.71;100.00
51439;BME280;38816;51.142;-0.974;2023-10-19T01:30:34;97167.41;;;13.76;100.00
51439;BME280;38816;51.142;-0.974;2023-10-19T01:33:00;97174.94;;;13.81;100.00
51439;BME280;38816;51.142;-0.974;2023-10-19T01:35:26;97169.69;;;13.82;100.00
51439;BME280;38816;51.142;-0.974;2023-10-19T01:37:52;97171.22;;;13.86;100.00
51439;BME280;38816;51.142;-0.974;2023-10-19T01:40:17;97162.44;;;13.90;100.00
51439;BME280;38816;51.142;-0.974;2023-10-19T01:42:46;97164.97;;;13.92;100.00
51439;BME280;38816;51.142;-0.974;2023-10-19T01:45:11;97159.63;;;13.95;100.00
51439;BME280;38816;51.142;-0.974;2023-10-19T01:47:37;97155.94;;;14.01;100.00
51439;BME280;38816;51.142;-0.974;2023-10-19T01:50:03;97163.47;;;14.05;100.00
51439;BME280;38816;51.142;-0.974;2023-10-19T01:52:31;97149.56;;;14.08;100.00
51439;BME280;38816;51.142;-0.974;2023-10-19T01:54:56;97146.06;;;14.09;100.00
51439;BME280;38816;51.142;-0.974;2023-10-19T01:57:28;97140.78;;;14.12;100.00
51439;BME280;38816;51.142;-0.974;2023-10-19T01:59:54;97140.63;;;14.15;100.00
51439;BME280;38816;51.142;-0.974;2023-10-19T02:02:19;97129.28;;;14.17;100.00
51439;BME280;38816;51.142;-0.974;2023-10-19T02:04:47;97121.31;;;14.22;100.00
51439;BME280;38816;51.142;-0.974;2023-10-19T02:07:14;97120.34;;;14.25;100.00
51439;BME280;38816;51.142;-0.974;2023-10-19T02:09:43;97117.63;;;14.28;100.00
51439;BME280;38816;51.142;-0.974;2023-10-19T02:12:08;97114.19;;;14.27;100.00
51439;BME280;38816;51.142;-0.974;2023-10-19T02:14:34;97113.22;;;14.30;100.00
51439;BME280;38816;51.142;-0.974;2023-10-19T02:17:00;97116.50;;;14.33;100.00
51439;BME280;38816;51.142;-0.974;2023-10-19T02:19:28;97112.06;;;14.35;100.00
51439;BME280;38816;51.142;-0.974;2023-10-19T02:22:00;97112.06;;;14.35;100.00
51439;BME280;38816;51.142;-0.974;2023-10-19T02:24:29;97114.59;;;14.37;100.00
51439;BME280;38816;51.142;-0.974;2023-10-19T02:26:56;97099.00;;;14.38;100.00
51439;BME280;38816;51.142;-0.974;2023-10-19T02:29:22;97108.38;;;14.41;100.00
51439;BME280;38816;51.142;-0.974;2023-10-19T02:31:48;97104.94;;;14.40;100.00
51439;BME280;38816;51.142;-0.974;2023-10-19T02:34:18;97093.69;;;14.41;100.00
51439;BME280;38816;51.142;-0.974;2023-10-19T02:36:46;97097.94;;;14.42;100.00
51439;BME280;38816;51.142;-0.974;2023-10-19T02:39:14;97085.94;;;14.41;100.00
51439;BME280;38816;51.142;-0.974;2023-10-19T02:44:14;97082.44;;;14.42;100.00
51439;BME280;38816;51.142;-0.974;2023-10-19T02:46:42;97073.03;;;14.41;100.00
51439;BME280;38816;51.142;-0.974;2023-10-19T02:49:09;97075.59;;;14.41;100.00
51439;BME280;38816;51.142;-0.974;2023-10-19T02:51:49;97062.69;;;14.41;100.00
51439;BME280;38816;51.142;-0.974;2023-10-19T02:54:17;97068.75;;;14.40;100.00
51439;BME280;38816;51.142;-0.974;2023-10-19T02:56:45;97061.91;;;14.39;100.00
51439;BME280;38816;51.142;-0.974;2023-10-19T02:59:15;97063.56;;;14.40;100.00
51439;BME280;38816;51.142;-0.974;2023-10-19T03:01:42;97060.16;;;14.40;100.00
51439;BME280;38816;51.142;-0.974;2023-10-19T03:04:10;97056.59;;;14.42;100.00
51439;BME280;38816;51.142;-0.974;2023-10-19T03:06:38;97053.00;;;14.45;100.00
51439;BME280;38816;51.142;-0.974;2023-10-19T03:09:05;97046.94;;;14.46;100.00
51439;BME280;38816;51.142;-0.974;2023-10-19T03:11:50;97043.44;;;14.47;100.00
51439;BME280;38816;51.142;-0.974;2023-10-19T03:14:20;97047.63;;;14.50;100.00
51439;BME280;38816;51.142;-0.974;2023-10-19T03:16:47;97046.56;;;14.54;100.00
51439;BME280;38816;51.142;-0.974;2023-10-19T03:19:12;97044.00;;;14.54;100.00
51439;BME280;38816;51.142;-0.974;2023-10-19T03:21:38;97034.56;;;14.53;100.00
51439;BME280;38816;51.142;-0.974;2023-10-19T03:24:11;97043.94;;;14.55;100.00
51439;BME280;38816;51.142;-0.974;2023-10-19T03:26:51;97029.31;;;14.54;100.00
51439;BME280;38816;51.142;-0.974;2023-10-19T03:29:19;97024.00;;;14.57;100.00
51439;BME280;38816;51.142;-0.974;2023-10-19T03:31:55;97027.50;;;14.56;100.00
51439;BME280;38816;51.142;-0.974;2023-10-19T03:34:21;97023.31;;;14.54;100.00
51439;BME280;38816;51.142;-0.974;2023-10-19T03:36:49;97026.66;;;14.56;100.00
51439;BME280;38816;51.142;-0.974;2023-10-19T03:39:15;97024.13;;;14.54;100.00
51439;BME280;38816;51.142;-0.974;2023-10-19T03:41:43;97012.13;;;14.53;100.00
51439;BME280;38816;51.142;-0.974;2023-10-19T03:44:13;97010.38;;;14.54;100.00
51439;BME280;38816;51.142;-0.974;2023-10-19T03:46:59;97003.56;;;14.53;100.00
51439;BME280;38816;51.142;-0.974;2023-10-19T03:49:29;97010.38;;;14.54;100.00
51439;BME280;38816;51.142;-0.974;2023-10-19T03:52:01;97001.75;;;14.55;100.00
51439;BME280;38816;51.142;-0.974;2023-10-19T03:54:37;97001.75;;;14.55;100.00
51439;BME280;38816;51.142;-0.974;2023-10-19T03:57:11;97000.00;;;14.55;100.00
51439;BME280;38816;51.142;-0.974;2023-10-19T03:59:48;96989.66;;;14.55;100.00
51439;BME280;38816;51.142;-0.974;2023-10-19T04:02:24;96974.28;;;14.52;100.00
51439;BME280;38816;51.142;-0.974;2023-10-19T04:04:50;96983.66;;;14.55;100.00
51439;BME280;38816;51.142;-0.974;2023-10-19T04:07:17;96986.16;;;14.56;100.00
51439;BME280;38816;51.142;-0.974;2023-10-19T04:09:43;96994.00;;;14.55;100.00
51439;BME280;38816;51.142;-0.974;2023-10-19T04:12:28;96983.66;;;14.55;100.00
51439;BME280;38816;51.142;-0.974;2023-10-19T04:14:55;96980.13;;;14.56;100.00
51439;BME280;38816;51.142;-0.974;2023-10-19T04:17:21;96974.13;;;14.55;100.00
51439;BME280;38816;51.142;-0.974;2023-10-19T04:19:48;96974.88;;;14.57;100.00
51439;BME280;38816;51.142;-0.974;2023-10-19T04:22:14;96972.22;;;14.59;100.00
51439;BME280;38816;51.142;-0.974;2023-10-19T04:24:51;96967.91;;;14.59;100.00
51439;BME280;38816;51.142;-0.974;2023-10-19T04:27:17;96967.97;;;14.58;100.00
51439;BME280;38816;51.142;-0.974;2023-10-19T04:29:47;96973.13;;;14.58;100.00
51439;BME280;38816;51.142;-0.974;2023-10-19T04:32:15;96959.28;;;14.59;100.00
51439;BME280;38816;51.142;-0.974;2023-10-19T04:34:43;96959.28;;;14.59;100.00
51439;BME280;38816;51.142;-0.974;2023-10-19T04:37:09;96959.13;;;14.62;100.00
51439;BME280;38816;51.142;-0.974;2023-10-19T04:39:38;96950.53;;;14.61;100.00
51439;BME280;38816;51.142;-0.974;2023-10-19T04:42:03;96952.16;;;14.64;100.00
51439;BME280;38816;51.142;-0.974;2023-10-19T04:44:29;96960.97;;;14.60;100.00
51439;BME280;38816;51.142;-0.974;2023-10-19T04:46:56;96953.47;;;14.55;100.00
51439;BME280;38816;51.142;-0.974;2023-10-19T04:49:22;96952.53;;;14.56;100.00
51439;BME280;38816;51.142;-0.974;2023-10-19T04:51:47;96945.75;;;14.54;100.00
51439;BME280;38816;51.142;-0.974;2023-10-19T04:54:13;96950.94;;;14.54;100.00
51439;BME280;38816;51.142;-0.974;2023-10-19T04:56:38;96950.09;;;14.53;100.00
51439;BME280;38816;51.142;-0.974;2023-10-19T04:59:04;96953.75;;;14.49;100.00
51439;BME280;38816;51.142;-0.974;2023-10-19T05:01:30;96953.75;;;14.49;100.00
51439;BME280;38816;51.142;-0.974;2023-10-19T05:03:59;96947.00;;;14.47;100.00
51439;BME280;38816;51.142;-0.974;2023-10-19T05:06:24;96950.41;;;14.47;100.00
51439;BME280;38816;51.142;-0.974;2023-10-19T05:08:50;96946.16;;;14.46;100.00
51439;BME280;38816;51.142;-0.974;2023-10-19T05:11:17;96951.38;;;14.44;100.00
51439;BME280;38816;51.142;-0.974;2023-10-19T05:13:43;96945.38;;;14.44;100.00
51439;BME280;38816;51.142;-0.974;2023-10-19T05:16:08;96944.56;;;14.43;100.00
51439;BME280;38816;51.142;-0.974;2023-10-19T05:18:34;96930.72;;;14.44;100.00
51439;BME280;38816;51.142;-0.974;2023-10-19T05:20:59;96943.63;;;14.44;100.00
51439;BME280;38816;51.142;-0.974;2023-10-19T05:23:27;96939.38;;;14.43;100.00
51439;BME280;38816;51.142;-0.974;2023-10-19T05:25:53;96935.81;;;14.46;100.00
51439;BME280;38816;51.142;-0.974;2023-10-19T05:28:24;96934.06;;;14.47;100.00
51439;BME280;38816;51.142;-0.974;2023-10-19T05:30:51;96939.22;;;14.47;100.00
51439;BME280;38816;51.142;-0.974;2023-10-19T05:33:16;96951.13;;;14.51;100.00
51439;BME280;38816;51.142;-0.974;2023-10-19T05:35:49;96953.81;;;14.48;100.00
51439;BME280;38816;51.142;-0.974;2023-10-19T05:38:15;96950.50;;;14.46;100.00
51439;BME280;38816;51.142;-0.974;2023-10-19T05:40:41;96948.66;;;14.48;100.00
51439;BME280;38816;51.142;-0.974;2023-10-19T05:43:08;96933.25;;;14.46;100.00
51439;BME280;38816;51.142;-0.974;2023-10-19T05:45:37;96934.38;;;14.40;100.00
51439;BME280;38816;51.142;-0.974;2023-10-19T05:48:03;96937.88;;;14.39;100.00
51439;BME280;38816;51.142;-0.974;2023-10-19T05:50:32;96938.69;;;14.40;100.00
51439;BME280;38816;51.142;-0.974;2023-10-19T05:52:57;96929.19;;;14.40;100.00
51439;BME280;38816;51.142;-0.974;2023-10-19T05:55:23;96929.97;;;14.42;100.00
51439;BME280;38816;51.142;-0.974;2023-10-19T05:57:48;96922.22;;;14.42;100.00
51439;BME280;38816;51.142;-0.974;2023-10-19T06:00:14;96930.06;;;14.41;100.00
51439;BME280;38816;51.142;-0.974;2023-10-19T06:02:45;96927.38;;;14.42;100.00
51439;BME280;38816;51.142;-0.974;2023-10-19T06:05:12;96923.88;;;14.43;100.00
51439;BME280;38816;51.142;-0.974;2023-10-19T06:07:38;96926.38;;;14.45;100.00
51439;BME280;38816;51.142;-0.974;2023-10-19T06:10:03;96929.81;;;14.46;100.00
51439;BME280;38816;51.142;-0.974;2023-10-19T06:12:33;96934.06;;;14.47;100.00
51439;BME280;38816;51.142;-0.974;2023-10-19T06:14:59;96935.72;;;14.48;100.00
51439;BME280;38816;51.142;-0.974;2023-10-19T06:17:28;96938.31;;;14.48;100.00
51439;BME280;38816;51.142;-0.974;2023-10-19T06:19:54;96935.72;;;14.48;100.00
51439;BME280;38816;51.142;-0.974;2023-10-19T06:22:20;96935.72;;;14.48;100.00
51439;BME280;38816;51.142;-0.974;2023-10-19T06:24:46;96925.38;;;14.48;100.00
51439;BME280;38816;51.142;-0.974;2023-10-19T06:27:11;96923.78;;;14.45;100.00
51439;BME280;38816;51.142;-0.974;2023-10-19T06:29:37;96935.88;;;14.44;100.00
51439;BME280;38816;51.142;-0.974;2023-10-19T06:32:02;96944.47;;;14.45;100.00
51439;BME280;38816;51.142;-0.974;2023-10-19T06:34:28;96945.31;;;14.46;100.00
51439;BME280;38816;51.142;-0.974;2023-10-19T06:36:54;96937.56;;;14.46;100.00
51439;BME280;38816;51.142;-0.974;2023-10-19T06:39:20;96933.28;;;14.44;100.00
51439;BME280;38816;51.142;-0.974;2023-10-19T06:41:48;96941.97;;;14.43;100.00
51439;BME280;38816;51.142;-0.974;2023-10-19T06:44:14;96939.38;;;14.43;100.00
51439;BME280;38816;51.142;-0.974;2023-10-19T06:46:42;96946.16;;;14.46;100.00
51439;BME280;38816;51.142;-0.974;2023-10-19T06:49:08;96944.25;;;14.50;100.00
51439;BME280;38816;51.142;-0.974;2023-10-19T06:51:34;96940.78;;;14.51;100.00
51439;BME280;38816;51.142;-0.974;2023-10-19T06:53:59;96935.59;;;14.51;100.00
51439;BME280;38816;51.142;-0.974;2023-10-19T06:56:25;96941.59;;;14.51;100.00
51439;BME280;38816;51.142;-0.974;2023-10-19T06:58:51;96937.44;;;14.49;100.00
51439;BME280;38816;51.142;-0.974;2023-10-19T07:01:16;96932.09;;;14.52;100.00
51439;BME280;38816;51.142;-0.974;2023-10-19T07:03:44;96936.34;;;14.53;100.00
51439;BME280;38816;51.142;-0.974;2023-10-19T07:06:09;96934.44;;;14.56;100.00
51439;BME280;38816;51.142;-0.974;2023-10-19T07:08:39;96928.25;;;14.59;100.00
51439;BME280;38816;51.142;-0.974;2023-10-19T07:11:06;96936.78;;;14.61;100.00
51439;BME280;38816;51.142;-0.974;2023-10-19T07:13:32;96930.53;;;14.65;100.00
51439;BME280;38816;51.142;-0.974;2023-10-19T07:15:59;96929.47;;;14.69;100.00
51439;BME280;38816;51.142;-0.974;2023-10-19T07:18:24;96934.41;;;14.74;100.00
51439;BME280;38816;51.142;-0.974;2023-10-19T07:20:51;96935.97;;;14.76;100.00
51439;BME280;38816;51.142;-0.974;2023-10-19T07:23:18;96929.72;;;14.80;100.00
51439;BME280;38816;51.142;-0.974;2023-10-19T07:25:48;96932.31;;;14.80;100.00
51439;BME280;38816;51.142;-0.974;2023-10-19T07:28:18;96927.13;;;14.80;100.00
51439;BME280;38816;51.142;-0.974;2023-10-19T07:30:45;96933.66;;;14.87;100.00
51439;BME280;38816;51.142;-0.974;2023-10-19T07:33:11;96938.66;;;14.90;100.00
51439;BME280;38816;51.142;-0.974;2023-10-19T07:35:48;96940.16;;;14.94;100.00
51439;BME280;38816;51.142;-0.974;2023-10-19T07:38:17;96933.97;;;14.97;100.00
51439;BME280;38816;51.142;-0.974;2023-10-19T07:40:46;96935.66;;;14.98;100.00
51439;BME280;38816;51.142;-0.974;2023-10-19T07:43:11;96927.81;;;15.00;100.00
51439;BME280;38816;51.142;-0.974;2023-10-19T07:45:37;96928.66;;;15.00;100.00
51439;BME280;38816;51.142;-0.974;2023-10-19T07:48:03;96923.38;;;15.02;100.00
51439;BME280;38816;51.142;-0.974;2023-10-19T07:50:36;96936.31;;;15.02;100.00
51439;BME280;38816;51.142;-0.974;2023-10-19T07:53:03;96930.31;;;15.01;100.00
51439;BME280;38816;51.142;-0.974;2023-10-19T07:55:29;96944.34;;;14.97;100.00
51439;BME280;38816;51.142;-0.974;2023-10-19T07:57:57;96935.91;;;14.93;100.00
51439;BME280;38816;51.142;-0.974;2023-10-19T08:00:25;96940.81;;;14.98;100.00
51439;BME280;38816;51.142;-0.974;2023-10-19T08:02:52;96925.25;;;15.00;100.00
51439;BME280;38816;51.142;-0.974;2023-10-19T08:05:19;96938.16;;;15.00;100.00
51439;BME280;38816;51.142;-0.974;2023-10-19T08:07:45;96934.66;;;15.01;100.00
51439;BME280;38816;51.142;-0.974;2023-10-19T08:10:15;96926.56;;;15.07;100.00
51439;BME280;38816;51.142;-0.974;2023-10-19T08:12:42;96933.13;;;15.28;100.00
51439;BME280;38816;51.142;-0.974;2023-10-19T08:15:09;96930.72;;;15.41;100.00
51439;BME280;38816;51.142;-0.974;2023-10-19T08:17:39;96934.19;;;15.56;100.00
51439;BME280;38816;51.142;-0.974;2023-10-19T08:20:10;96932.75;;;15.66;100.00
51439;BME280;38816;51.142;-0.974;2023-10-19T08:22:44;96928.84;;;15.59;100.00
51439;BME280;38816;51.142;-0.974;2023-10-19T08:25:12;96927.09;;;15.43;100.00
51439;BME280;38816;51.142;-0.974;2023-10-19T08:27:41;96928.38;;;15.36;100.00
51439;BME280;38816;51.142;-0.974;2023-10-19T08:30:13;96918.44;;;15.44;100.00
51439;BME280;38816;51.142;-0.974;2023-10-19T08:32:41;96925.75;;;15.52;100.00
51439;BME280;38816;51.142;-0.974;2023-10-19T08:35:08;96930.44;;;15.45;100.00
51439;BME280;38816;51.142;-0.974;2023-10-19T08:37:37;96929.88;;;15.40;100.00
51439;BME280;38816;51.142;-0.974;2023-10-19T08:40:09;96926.09;;;15.46;100.00
51439;BME280;38816;51.142;-0.974;2023-10-19T08:42:39;96930.25;;;15.49;100.00
51439;BME280;38816;51.142;-0.974;2023-10-19T08:45:06;96937.13;;;15.50;100.00
51439;BME280;38816;51.142;-0.974;2023-10-19T08:47:35;96927.66;;;15.49;100.00
51439;BME280;38816;51.142;-0.974;2023-10-19T08:50:03;96927.91;;;15.60;100.00
51439;BME280;38816;51.142;-0.974;2023-10-19T08:52:30;96927.28;;;15.86;100.00
51439;BME280;38816;51.142;-0.974;2023-10-19T08:54:57;96929.63;;;16.05;100.00
51439;BME280;38816;51.142;-0.974;2023-10-19T08:57:23;96933.25;;;16.17;100.00
51439;BME280;38816;51.142;-0.974;2023-10-19T08:59:48;96934.75;;;16.21;100.00
51439;BME280;38816;51.142;-0.974;2023-10-19T09:02:14;96931.03;;;16.25;100.00
51439;BME280;38816;51.142;-0.974;2023-10-19T09:04:47;96934.75;;;16.21;100.00
51439;BME280;38816;51.142;-0.974;2023-10-19T09:07:13;96940.50;;;16.26;100.00
51439;BME280;38816;51.142;-0.974;2023-10-19T09:09:39;96938.47;;;16.31;100.00
51439;BME280;38816;51.142;-0.974;2023-10-19T09:12:09;96937.34;;;16.21;100.00
51439;BME280;38816;51.142;-0.974;2023-10-19T09:14:36;96938.22;;;16.06;100.00
51439;BME280;38816;51.142;-0.974;2023-10-19T09:17:05;96931.16;;;15.93;100.00
51439;BME280;38816;51.142;-0.974;2023-10-19T09:19:41;96935.88;;;15.87;100.00
51439;BME280;38816;51.142;-0.974;2023-10-19T09:22:07;96940.22;;;15.86;100.00
51439;BME280;38816;51.142;-0.974;2023-10-19T09:24:37;96927.28;;;15.86;100.00
51439;BME280;38816;51.142;-0.974;2023-10-19T09:27:05;96940.31;;;15.85;100.00
51439;BME280;38816;51.142;-0.974;2023-10-19T09:29:31;96932.75;;;15.96;100.00
51439;BME280;38816;51.142;-0.974;2023-10-19T09:31:58;96934.00;;;16.19;100.00
51439;BME280;38816;51.142;-0.974;2023-10-19T09:34:29;96934.66;;;16.37;100.00
51439;BME280;38816;51.142;-0.974;2023-10-19T09:37:01;96936.25;;;16.39;100.00
51439;BME280;38816;51.142;-0.974;2023-10-19T09:39:28;96931.41;;;16.33;100.00
51439;BME280;38816;51.142;-0.974;2023-10-19T09:42:06;96928.00;;;16.33;100.00
51439;BME280;38816;51.142;-0.974;2023-10-19T09:44:54;96928.09;;;16.45;100.00
51439;BME280;38816;51.142;-0.974;2023-10-19T09:47:30;96919.84;;;16.67;100.00
51439;BME280;38816;51.142;-0.974;2023-10-19T09:50:03;96930.13;;;16.83;100.00
51439;BME280;38816;51.142;-0.974;2023-10-19T09:52:33;96925.69;;;16.85;100.00
51439;BME280;38816;51.142;-0.974;2023-10-19T09:55:14;96934.59;;;16.81;100.00
51439;BME280;38816;51.142;-0.974;2023-10-19T09:57:46;96936.41;;;16.65;100.00
51439;BME280;38816;51.142;-0.974;2023-10-19T10:00:14;96925.94;;;16.52;100.00
51439;BME280;38816;51.142;-0.974;2023-10-19T10:02:43;96929.19;;;16.56;100.00
51439;BME280;38816;51.142;-0.974;2023-10-19T10:10:45;96926.44;;;16.30;100.00
51439;BME280;38816;51.142;-0.974;2023-10-19T10:15:52;96928.53;;;16.24;100.00
51439;BME280;38816;51.142;-0.974;2023-10-19T10:18:20;96924.94;;;16.40;100.00
51439;BME280;38816;51.142;-0.974;2023-10-19T10:20:45;96925.69;;;16.71;100.00
51439;BME280;38816;51.142;-0.974;2023-10-19T10:23:20;96920.50;;;16.85;100.00
51439;BME280;38816;51.142;-0.974;2023-10-19T10:25:52;96922.22;;;16.99;100.00
51439;BME280;38816;51.142;-0.974;2023-10-19T10:28:19;96915.41;;;17.11;100.00
51439;BME280;38816;51.142;-0.974;2023-10-19T10:31:18;96912.34;;;17.18;100.00
51439;BME280;38816;51.142;-0.974;2023-10-19T10:33:50;96913.47;;;17.14;100.00
51439;BME280;38816;51.142;-0.974;2023-10-19T10:36:18;96920.06;;;17.06;100.00
51439;BME280;38816;51.142;-0.974;2023-10-19T10:38:50;96912.56;;;17.01;100.00
51439;BME280;38816;51.142;-0.974;2023-10-19T10:41:20;96910.66;;;16.90;100.00
51439;BME280;38816;51.142;-0.974;2023-10-19T10:43:56;96917.16;;;16.83;100.00
51439;BME280;38816;51.142;-0.974;2023-10-19T10:46:26;96920.69;;;16.82;100.00
51439;BME280;38816;51.142;-0.974;2023-10-19T10:48:55;96923.16;;;16.84;100.00
51439;BME280;38816;51.142;-0.974;2023-10-19T10:51:26;96920.50;;;16.85;100.00
51439;BME280;38816;51.142;-0.974;2023-10-19T10:53:54;96917.25;;;16.82;100.00
51439;BME280;38816;51.142;-0.974;2023-10-19T10:56:21;96923.00;;;16.87;100.00
51439;BME280;38816;51.142;-0.974;2023-10-19T10:58:47;96911.97;;;16.83;100.00
51439;BME280;38816;51.142;-0.974;2023-10-19T11:01:13;96912.19;;;16.80;100.00
51439;BME280;38816;51.142;-0.974;2023-10-19T11:03:40;96918.91;;;16.83;100.00
51439;BME280;38816;51.142;-0.974;2023-10-19T11:06:07;96917.38;;;16.80;100.00
51439;BME280;38816;51.142;-0.974;2023-10-19T11:08:34;96903.44;;;16.67;100.00
51439;BME280;38816;51.142;-0.974;2023-10-19T11:11:08;96908.66;;;16.53;100.00
51439;BME280;38816;51.142;-0.974;2023-10-19T11:13:37;96902.06;;;16.33;100.00
51439;BME280;38816;51.142;-0.974;2023-10-19T11:16:05;96904.16;;;16.12;100.00
51439;BME280;38816;51.142;-0.974;2023-10-19T11:18:36;96896.09;;;15.88;100.00
51439;BME280;38816;51.142;-0.974;2023-10-19T11:21:12;96901.66;;;15.82;100.00
51439;BME280;38816;51.142;-0.974;2023-10-19T11:23:49;96901.41;;;16.01;100.00
51439;BME280;38816;51.142;-0.974;2023-10-19T11:26:20;96899.03;;;16.26;100.00
51439;BME280;38816;51.142;-0.974;2023-10-19T11:28:46;96894.41;;;16.17;100.00
51439;BME280;38816;51.142;-0.974;2023-10-19T11:31:23;96890.78;;;16.19;100.00
51439;BME280;38816;51.142;-0.974;2023-10-19T11:33:50;96891.81;;;16.17;100.00
51439;BME280;38816;51.142;-0.974;2023-10-19T11:36:17;96886.41;;;16.20;100.00
51439;BME280;38816;51.142;-0.974;2023-10-19T11:38:48;96882.34;;;16.44;100.00
51439;BME280;38816;51.142;-0.974;2023-10-19T11:41:15;96892.97;;;16.83;100.00
51439;BME280;38816;51.142;-0.974;2023-10-19T11:43:42;96888.63;;;17.25;100.00
51439;BME280;38816;51.142;-0.974;2023-10-19T11:46:08;96883.94;;;17.57;100.00
51439;BME280;38816;51.142;-0.974;2023-10-19T11:48:35;96872.19;;;17.64;100.00
51439;BME280;38816;51.142;-0.974;2023-10-19T11:51:05;96872.28;;;17.62;100.00
51439;BME280;38816;51.142;-0.974;2023-10-19T11:53:32;96876.63;;;17.49;100.00
51439;BME280;38816;51.142;-0.974;2023-10-19T11:56:02;96881.72;;;17.51;100.00
51439;BME280;38816;51.142;-0.974;2023-10-19T11:58:32;96879.66;;;17.56;100.00
51439;BME280;38816;51.142;-0.974;2023-10-19T12:00:59;96885.13;;;17.38;100.00
51439;BME280;38816;51.142;-0.974;2023-10-19T12:03:24;96884.91;;;17.14;100.00
51439;BME280;38816;51.142;-0.974;2023-10-19T12:05:51;96876.19;;;16.88;100.00
51439;BME280;38816;51.142;-0.974;2023-10-19T12:08:18;96879.19;;;16.68;100.00
51439;BME280;38816;51.142;-0.974;2023-10-19T12:10:44;96880.84;;;16.55;100.00
51439;BME280;38816;51.142;-0.974;2023-10-19T12:13:10;96881.78;;;16.54;100.00
51439;BME280;38816;51.142;-0.974;2023-10-19T12:15:35;96854.06;;;16.68;100.00
51439;BME280;38816;51.142;-0.974;2023-10-19T12:18:01;96847.47;;;16.91;100.00
51439;BME280;38816;51.142;-0.974;2023-10-19T12:20:31;96841.22;;;17.08;100.00
51439;BME280;38816;51.142;-0.974;2023-10-19T12:22:57;96817.47;;;17.27;100.00
51439;BME280;38816;51.142;-0.974;2023-10-19T12:25:24;96816.88;;;17.36;100.00
51439;BME280;38816;51.142;-0.974;2023-10-19T12:27:57;96820.81;;;17.42;100.00
51439;BME280;38816;51.142;-0.974;2023-10-19T12:30:23;96830.31;;;17.43;100.00
51439;BME280;38816;51.142;-0.974;2023-10-19T12:32:52;96825.00;;;17.44;100.00
51439;BME280;38816;51.142;-0.974;2023-10-19T12:35:18;96830.72;;;17.50;100.00
51439;BME280;38816;51.142;-0.974;2023-10-19T12:37:50;96835.09;;;17.49;100.00
51439;BME280;38816;51.142;-0.974;2023-10-19T12:40:21;96835.50;;;17.43;100.00
51439;BME280;38816;51.142;-0.974;2023-10-19T12:42:53;96829.66;;;17.39;100.00
51439;BME280;38816;51.142;-0.974;2023-10-19T12:45:23;96820.41;;;17.35;100.00
51439;BME280;38816;51.142;-0.974;2023-10-19T12:47:49;96822.91;;;17.37;100.00
51439;BME280;38816;51.142;-0.974;2023-10-19T12:50:19;96826.84;;;17.42;100.00
51439;BME280;38816;51.142;-0.974;2023-10-19T12:52:51;96827.06;;;17.39;100.00
51439;BME280;38816;51.142;-0.974;2023-10-19T12:55:18;96825.63;;;17.48;100.00
51439;BME280;38816;51.142;-0.974;2023-10-19T12:57:43;96826.97;;;17.41;100.00
51439;BME280;38816;51.142;-0.974;2023-10-19T13:00:10;96820.22;;;17.38;100.00
51439;BME280;38816;51.142;-0.974;2023-10-19T13:02:52;96822.69;;;17.40;100.00
51439;BME280;38816;51.142;-0.974;2023-10-19T13:05:39;96825.59;;;17.35;100.00